DE-0265 weather

Autobahn Police Heliport
Kißlegg, Baden-Württemberg, Germany

Public forecast

Using degrees Celsius for public forecast. Weather courtesy of forecast.io.

Closest aviation weather report (METAR) to Autobahn Police Heliport

Closest report is Friedrichshafen Airport, 16.5 nm (30.5 km) WSW. Retrieved 2019/11/14 02:20 UTC (18 minutes ago):

EDNY 140220Z AUTO 03007KT 9999 // NCD 00/M02 Q1003

Closest aviation forecast (TAF) to Autobahn Police Heliport

Closest forecast is Friedrichshafen Airport, 16.5 nm (30.5 km) WSW. Retrieved 2019-11-14 00:27 UTC (2 hours ago):

TAF EDNY 132300Z 1400/1424 06005KT CAVOK